Date,TemperatureHighF,TemperatureAvgF,TemperatureLowF,DewpointHighF,DewpointAvgF,DewpointLowF,HumidityHigh,HumidityAvg,HumidityLow,PressureMaxIn,PressureMinIn,WindSpeedMaxMPH,WindSpeedAvgMPH,GustSpeedMaxMPH,PrecipitationSumIn
2013-1-1,33.9,25.3,20.1,31.0,18.6,11.9,90,76,65,29.82,29.64,0,0,1,0.01
2013-1-2,29.6,22.3,14.6,17.1,12.5,7.5,73,66,52,29.83,29.74,0,0,3,0.00
2013-1-3,42.8,30.9,22.6,27.3,21.3,13.9,78,68,52,29.95,29.76,4,0,6,0.05
2013-1-4,42.4,33.5,26.9,25.3,22.6,19.5,78,65,48,29.99,29.86,6,1,10,0.01
2013-1-5,42.5,36.6,28.6,32.2,26.9,21.6,77,68,60,29.87,29.66,3,0,6,0.00
2013-1-6,42.0,35.5,27.9,33.2,25.4,20.3,77,67,49,29.94,29.64,9,1,11,0.00
2013-1-7,45.7,33.7,25.4,29.9,24.4,19.6,79,69,52,29.95,29.70,4,0,9,0.00
2013-1-8,55.1,41.5,30.2,36.2,29.0,23.3,77,62,40,29.76,29.64,2,0,9,0.00
2013-1-9,61.1,49.8,42.6,42.5,36.8,30.6,87,63,40,30.03,29.69,0,0,4,0.00
2013-1-10,52.6,45.6,42.7,50.9,38.8,30.6,94,78,58,30.01,29.39,6,0,7,0.30
2013-1-25,37.8,36.9,35.9,19.9,19.6,19.3,51,49,47,29.78,29.73,1,0,4,0.00
2013-1-26,42.3,33.9,26.9,21.1,15.9,11.8,63,48,32,29.95,29.77,3,0,6,0.00
2013-1-27,48.4,37.3,29.4,46.2,31.9,16.4,92,81,57,29.88,29.51,5,1,8,0.07
2013-1-28,72.5,60.9,48.8,61.5,55.7,44.5,91,83,67,29.53,29.40,4,0,8,0.00
2013-1-29,63.5,62.9,62.0,58.3,57.9,57.5,86,84,82,29.43,29.31,5,1,11,0.00
2013-2-8,35.8,32.8,30.4,28.0,25.5,23.7,76,74,73,29.92,29.89,3,0,6,0.00
2013-2-9,43.3,35.6,30.2,33.9,27.2,23.3,84,71,59,29.92,29.57,8,1,12,0.10
2013-2-10,55.4,47.2,38.2,51.6,40.6,30.7,94,80,42,29.58,29.15,9,1,19,0.48
2013-2-11,53.2,44.0,37.9,33.1,27.4,24.7,65,53,38,29.70,29.32,10,2,21,0.04
2013-2-12,48.1,39.7,31.2,31.5,27.3,23.9,75,61,49,29.72,29.49,0,0,0,0.06
2013-2-13,56.6,45.1,37.5,32.8,29.4,27.6,69,55,33,29.50,29.35,8,0,11,0.00
2013-2-14,60.1,47.8,39.0,41.1,32.6,28.4,73,57,37,29.61,29.36,6,0,9,0.00
2013-2-15,45.3,38.0,30.8,30.0,20.6,14.2,69,50,32,29.82,29.61,6,1,7,0.00
2013-2-16,41.2,31.0,23.2,18.1,11.9,7.9,61,46,27,29.82,29.72,5,0,8,0.00
2013-2-17,50.1,36.8,26.1,30.3,20.1,12.4,64,51,34,29.75,29.47,7,1,12,0.00
2013-2-18,55.5,46.2,35.0,46.7,37.8,24.1,87,73,63,29.47,29.11,9,1,14,0.07
2013-2-19,39.3,31.4,25.9,24.0,15.0,8.4,66,51,35,29.85,29.46,11,2,15,0.00
2013-2-20,28.2,24.5,19.9,11.9,9.5,6.1,61,53,46,29.97,29.84,4,0,7,0.00
2013-2-21,31.9,26.8,23.1,28.8,19.7,11.5,88,75,60,29.88,29.38,11,1,15,0.00
2013-2-22,35.6,32.5,25.9,33.4,26.1,17.9,100,78,62,29.64,29.35,7,1,10,0.16
2013-2-23,41.2,29.8,20.9,24.2,19.4,14.8,77,66,46,29.62,29.53,3,0,6,0.16
2013-2-24,46.6,35.2,24.2,28.0,24.0,19.0,83,65,46,29.69,29.58,5,1,8,0.35
2013-2-25,47.7,39.2,33.2,32.9,29.4,25.5,85,68,53,29.63,29.16,6,1,10,0.16
2013-2-26,42.9,37.3,34.3,40.9,34.4,30.3,93,89,85,29.22,28.90,5,1,8,0.38
2013-2-27,35.3,33.3,31.8,31.0,29.4,26.8,89,85,81,29.45,29.22,6,1,10,0.08
2013-2-28,35.1,33.4,31.8,29.4,28.0,26.8,85,80,75,29.66,29.44,5,0,10,0.02
2013-3-1,34.7,32.0,29.4,28.9,26.9,23.1,86,81,74,29.75,29.61,2,0,5,0.01
2013-3-2,36.3,30.1,25.7,23.0,20.2,16.6,79,67,50,29.80,29.73,5,0,7,0.46
2013-3-3,38.9,31.5,21.1,25.4,19.1,14.3,77,61,42,29.77,29.59,5,0,7,0.10
2013-3-4,53.0,43.0,34.9,39.4,31.0,25.0,75,63,47,29.60,29.31,10,2,14,0.01
2013-3-5,44.5,36.3,32.3,33.9,28.7,22.0,88,74,58,29.67,29.34,11,1,18,0.14
2013-3-6,41.7,34.4,30.0,26.2,23.1,21.4,75,63,51,29.91,29.67,6,1,10,0.00
2013-3-7,48.8,36.3,26.4,30.9,25.6,20.2,78,66,47,29.98,29.85,6,0,7,0.00
2013-3-8,54.9,42.2,30.8,34.6,29.9,25.1,80,63,44,29.98,29.75,10,1,11,0.00
2013-3-9,67.5,51.5,40.9,43.5,36.4,30.5,85,58,36,29.75,29.36,10,1,13,0.25
2013-3-10,58.1,53.0,45.6,51.8,47.2,40.7,92,81,53,29.36,29.21,6,0,9,0.24
2013-3-11,45.4,36.1,33.7,40.7,29.0,22.9,87,76,61,29.55,29.27,7,2,13,0.02
2013-3-12,52.3,38.5,30.0,29.0,24.3,20.9,74,58,37,29.76,29.53,8,1,11,0.29
2013-3-13,46.6,35.6,28.6,24.4,19.3,16.0,74,52,36,29.97,29.77,6,1,10,0.07
2013-3-14,51.2,39.0,30.7,34.2,26.7,19.5,74,61,47,29.95,29.63,5,1,9,0.01
2013-3-15,69.9,53.0,34.2,49.6,39.6,28.8,84,63,38,29.63,29.21,5,0,8,0.00
2013-3-16,64.6,48.2,39.9,46.9,38.9,34.8,83,71,49,29.60,29.20,5,0,7,0.06
2013-3-17,39.9,36.4,34.5,35.2,31.6,27.6,91,82,75,29.65,29.32,5,0,10,1.25
2013-3-18,50.9,41.6,37.0,38.8,34.1,23.2,92,77,50,29.57,29.23,10,1,13,0.03
2013-3-19,49.9,39.3,31.4,24.0,18.8,13.9,63,45,27,29.77,29.57,5,0,9,0.00
2013-3-20,38.2,33.6,28.5,28.5,18.6,11.8,75,55,38,29.83,29.66,6,1,10,0.00
2013-3-21,40.1,30.7,23.0,18.7,13.5,9.7,58,49,37,29.68,29.54,6,1,7,0.00
2013-3-22,42.1,36.6,31.8,25.5,22.4,18.3,63,56,47,29.61,29.53,3,0,6,0.00
2013-3-23,55.2,44.7,37.8,34.1,27.3,23.0,61,51,36,29.60,29.38,3,0,7,0.00
2013-3-24,45.4,33.8,31.4,34.2,30.2,28.6,90,87,62,29.42,29.11,5,0,8,0.17
2013-3-25,36.8,32.6,29.5,30.5,27.1,24.2,90,80,71,29.74,29.37,6,0,8,0.50
2013-3-26,43.3,35.7,31.5,27.6,25.2,23.1,76,66,52,29.91,29.74,6,0,7,0.38
2013-3-27,49.3,37.5,27.1,28.7,25.0,21.4,81,62,40,29.95,29.85,2,0,5,0.01
2013-3-28,58.8,46.8,36.9,38.1,31.8,24.6,65,56,44,29.92,29.78,7,1,10,0.00
2013-3-29,64.7,53.1,44.2,46.4,41.9,36.7,82,66,48,29.81,29.72,4,0,7,0.00
2013-3-30,53.9,47.8,41.9,46.4,42.9,39.5,92,83,67,29.76,29.47,7,0,10,0.15
2013-3-31,71.6,57.5,47.9,49.8,43.7,34.5,92,65,29,29.49,29.39,4,0,11,0.00
2013-4-1,54.3,45.8,39.3,34.3,23.7,16.5,59,43,24,29.79,29.49,5,1,10,0.00
2013-4-2,54.3,41.4,32.0,22.3,18.2,13.8,58,40,26,29.91,29.78,3,0,8,0.00
2013-4-3,54.9,45.1,34.9,26.7,23.6,20.2,57,43,32,29.95,29.80,6,1,10,0.00
2013-4-4,66.3,51.3,38.7,39.9,25.4,22.9,100,38,23,29.80,29.58,4,0,5,0.00
2013-4-5,71.0,55.5,43.7,37.9,31.9,26.1,58,42,25,29.74,29.59,7,0,7,0.00
2013-4-6,73.8,62.1,51.3,43.5,38.0,35.1,58,42,26,29.59,29.28,9,2,15,0.00
2013-4-7,78.8,67.3,56.3,59.5,49.6,43.5,82,55,35,29.48,29.35,6,1,9,0.36
2013-4-8,77.4,68.9,60.6,59.6,56.0,52.6,77,64,50,29.43,29.27,6,1,14,0.01
2013-4-9,78.7,70.9,64.7,62.1,58.9,55.5,73,66,55,29.44,29.35,7,1,12,0.00
2013-4-10,84.8,73.5,65.7,67.1,63.4,59.8,85,71,51,29.37,29.14,9,0,18,0.69
2013-4-11,48.9,44.3,41.0,39.3,33.4,28.4,75,65,59,29.31,29.23,6,1,10,0.00
2013-4-12,46.2,42.4,38.1,31.1,29.5,27.6,67,60,54,29.57,29.28,13,1,14,0.00
2013-4-13,64.1,51.5,37.6,40.7,33.9,29.5,73,53,34,29.62,29.45,6,0,8,0.00
2013-4-14,79.0,63.5,48.6,55.1,46.5,39.4,71,56,33,29.45,29.16,11,1,16,0.00
2013-4-15,70.7,63.4,54.6,61.2,55.4,48.5,89,75,63,29.44,29.28,5,0,9,0.13
2013-4-16,54.7,48.6,45.8,49.5,45.1,43.3,91,88,79,29.69,29.45,3,0,6,0.62
2013-4-17,84.9,64.5,49.1,67.6,56.6,45.1,94,77,51,29.67,29.24,6,0,14,0.03
2013-4-18,75.2,60.9,41.8,65.0,54.9,32.5,93,81,66,29.33,29.12,11,1,15,0.26
2013-4-19,41.8,40.8,40.5,32.8,30.9,29.7,70,67,65,29.32,29.31,10,2,13,0.00
2013-4-23,49.3,42.6,40.4,45.9,39.8,37.7,91,90,87,29.57,29.42,3,0,6,1.13
2013-4-24,57.5,45.5,38.6,37.6,33.6,27.4,90,66,33,29.80,29.54,6,0,9,0.11
2013-4-25,68.8,53.0,40.4,36.5,32.4,28.0,66,47,28,29.90,29.78,6,0,10,0.00
2013-4-26,57.5,53.3,49.3,47.5,42.2,35.9,78,66,52,29.93,29.80,7,0,8,0.00
2013-4-27,54.4,52.1,49.7,52.1,49.0,44.2,93,89,77,29.84,29.47,4,0,5,0.48
2013-4-28,58.1,54.5,51.5,51.5,50.2,47.7,94,86,75,29.51,29.43,3,0,7,0.00
2013-4-29,78.5,62.7,48.2,61.0,54.1,45.6,93,75,53,29.49,29.33,7,0,9,0.01
2013-4-30,87.8,72.9,60.5,61.7,57.5,52.0,82,61,30,29.50,29.35,6,0,13,0.00
2013-5-1,85.1,73.2,60.2,61.3,56.4,51.0,78,57,38,29.63,29.49,7,0,9,0.00
2013-5-2,73.3,62.9,46.4,60.5,54.0,42.8,87,74,53,29.70,29.60,4,0,7,0.50
2013-5-3,46.2,42.6,41.0,42.5,39.9,38.6,92,90,87,29.64,29.36,3,0,5,1.85
2013-5-4,50.7,44.7,39.6,43.0,39.7,37.0,91,83,68,29.55,29.38,2,0,6,0.01
2013-5-5,60.4,53.3,46.6,55.2,49.2,42.4,92,86,78,29.54,29.42,3,0,5,0.20
2013-5-6,66.7,60.6,53.9,55.4,52.3,48.9,86,75,63,29.52,29.44,2,0,6,0.00
2013-5-7,79.7,66.4,58.6,58.5,55.2,52.8,85,69,42,29.58,29.51,2,0,5,0.00
2013-5-8,80.9,68.8,55.6,57.8,53.8,49.2,89,62,35,29.59,29.50,3,0,6,0.00
2013-5-9,78.5,69.6,65.1,64.0,59.4,56.9,87,71,52,29.53,29.38,5,0,10,0.02
2013-5-10,67.7,63.7,60.9,60.9,59.1,57.3,91,85,75,29.46,29.38,3,0,5,0.09
2013-5-11,70.7,63.6,53.5,56.6,41.3,30.4,79,45,33,29.71,29.47,5,1,10,0.09
2013-5-12,65.6,54.6,43.6,35.5,29.8,26.1,65,40,27,29.78,29.68,5,0,9,0.00
2013-5-13,74.2,59.3,43.5,45.1,38.1,31.0,76,48,28,29.78,29.58,4,0,7,0.00
2013-5-14,94.0,76.2,56.7,56.5,51.3,44.9,74,45,27,29.58,29.34,8,1,12,0.00
2013-5-15,92.1,81.7,71.8,64.6,59.6,49.8,64,48,34,29.49,29.35,7,1,13,0.00
2013-5-16,82.2,74.0,69.2,66.2,61.9,57.2,77,67,46,29.49,29.39,5,0,14,0.00
2013-5-17,79.0,71.6,66.8,66.8,62.0,57.6,81,72,62,29.51,29.45,5,0,8,0.00
2013-5-18,82.8,73.4,65.0,65.7,63.7,61.0,89,73,55,29.55,29.42,4,0,7,0.00
2013-5-19,90.2,79.4,70.5,73.8,68.2,63.5,83,69,51,29.45,29.25,10,0,10,0.00
2013-5-20,78.7,72.7,63.6,69.1,65.1,59.2,93,77,66,29.47,29.23,5,0,12,0.66
2013-5-21,79.5,69.7,63.1,67.5,63.3,61.3,94,81,60,29.35,29.24,5,0,8,0.04
2013-5-22,76.8,69.1,63.9,61.8,57.9,53.8,88,69,51,29.42,29.21,9,1,13,0.00
2013-5-23,65.1,62.7,58.0,58.5,53.8,48.8,85,73,65,29.77,29.42,5,0,8,0.00
2013-5-24,72.6,59.8,49.1,49.6,40.7,32.9,80,52,33,29.95,29.77,5,1,7,0.00
2013-5-25,69.9,62.8,53.6,54.9,49.1,42.5,73,61,48,29.89,29.67,5,0,8,0.06
2013-5-26,84.3,69.9,57.9,66.0,57.1,48.8,74,64,52,29.74,29.53,6,0,9,0.00
2013-5-27,82.8,73.6,65.3,69.2,61.7,56.7,87,67,57,29.57,29.28,5,0,11,1.07
2013-5-28,85.0,75.9,70.0,68.3,64.6,61.8,83,69,53,29.44,29.34,4,0,11,0.04
2013-5-29,86.7,78.5,69.8,67.6,63.7,60.5,76,61,45,29.51,29.36,5,1,11,0.00
2013-5-30,81.2,75.3,64.4,70.8,66.5,61.3,91,75,61,29.46,29.34,5,0,12,0.45
2013-5-31,80.0,71.0,63.8,71.2,65.5,60.9,92,83,71,29.45,29.27,5,0,11,1.83
2013-6-1,77.1,68.3,64.4,67.0,62.5,56.2,95,83,61,29.43,29.25,6,0,10,0.39
2013-6-2,67.6,64.3,60.9,57.4,55.4,52.0,79,73,67,29.57,29.41,3,0,6,0.00
2013-6-3,72.5,63.9,58.7,53.0,50.4,45.2,76,62,49,29.64,29.53,1,0,4,0.00
2013-6-4,75.6,66.5,56.2,58.1,54.2,48.8,82,65,50,29.63,29.53,4,0,6,0.00
2013-6-5,83.2,71.0,62.8,63.7,59.6,55.5,85,69,42,29.56,29.39,3,0,5,0.10
2013-6-6,79.5,71.4,65.3,62.7,59.0,52.9,84,66,50,29.41,29.36,5,0,7,0.01
2013-6-7,76.7,68.6,61.8,58.9,56.5,53.6,83,66,52,29.45,29.40,2,0,5,0.00
2013-6-8,80.9,71.0,59.9,59.3,56.2,52.0,85,62,40,29.52,29.44,4,0,7,0.00
2013-6-9,78.5,69.4,65.9,65.0,60.4,57.9,86,73,60,29.50,29.34,7,0,14,0.02
2013-6-10,80.2,70.8,63.5,64.6,62.3,60.8,92,76,56,29.46,29.32,2,0,7,0.09
2013-6-11,91.9,79.1,64.2,72.9,67.2,60.9,91,69,48,29.52,29.39,3,0,8,0.00
2013-6-12,95.4,85.9,74.0,74.9,71.1,68.2,83,62,47,29.50,29.28,8,1,12,0.00
2013-6-13,85.7,78.4,70.4,70.7,62.6,56.8,78,59,42,29.53,29.29,4,0,10,0.00
2013-6-14,84.2,75.2,65.9,61.6,58.4,55.7,75,57,43,29.64,29.49,3,0,5,0.00
2013-6-15,90.4,77.6,69.8,70.9,64.6,59.9,91,65,52,29.64,29.47,4,0,6,0.34
2013-6-16,83.8,74.6,69.0,72.7,69.5,66.3,94,85,65,29.58,29.45,2,0,5,0.22
2013-6-17,84.5,73.0,66.1,74.9,68.6,63.1,94,87,67,29.50,29.41,2,0,9,1.64
2013-6-18,88.6,75.0,63.1,71.3,64.0,60.1,96,72,42,29.51,29.44,2,0,8,0.00
2013-6-19,85.8,76.4,67.5,67.9,64.2,62.5,86,67,49,29.61,29.51,1,0,4,0.00
2013-6-20,90.4,80.5,70.5,71.7,68.0,64.2,86,67,49,29.67,29.58,2,0,7,0.00
2013-6-21,91.2,82.2,74.5,74.3,71.3,69.0,84,70,56,29.66,29.54,3,0,8,0.00
2013-6-22,89.1,77.3,69.4,76.5,69.6,64.0,88,77,57,29.63,29.54,5,0,9,0.07
2013-6-23,89.3,74.5,68.2,75.9,68.6,63.8,99,83,62,29.61,29.49,5,0,8,1.23
2013-6-24,91.5,78.9,67.3,78.7,71.7,67.0,100,81,53,29.62,29.48,4,0,7,0.00
2013-6-25,93.2,84.3,76.1,76.0,73.2,70.9,84,70,54,29.52,29.33,5,0,9,0.00
2013-6-26,93.4,80.1,74.2,78.5,73.4,70.4,94,81,59,29.42,29.27,8,0,9,0.54
2013-6-27,96.2,83.3,74.3,74.2,70.5,66.5,90,68,40,29.44,29.31,3,0,6,0.00
2013-6-28,90.6,81.9,74.0,72.2,66.1,58.9,87,61,38,29.40,29.25,4,0,11,0.01
2013-6-29,83.5,73.2,66.7,66.8,61.7,59.2,84,68,50,29.28,29.20,7,0,10,0.13
2013-6-30,76.2,69.5,65.5,66.2,62.0,58.6,87,77,66,29.45,29.27,3,0,7,0.07
2013-7-1,79.5,72.1,64.7,62.4,56.8,52.2,77,59,46,29.52,29.44,3,0,7,0.00
2013-7-2,70.5,63.9,60.9,61.0,58.8,56.4,92,84,65,29.59,29.48,2,0,4,0.93
2013-7-3,81.5,71.2,61.9,63.1,60.9,58.6,93,72,50,29.64,29.55,4,0,5,0.00
2013-7-4,84.8,74.5,63.9,64.7,61.6,59.1,87,66,46,29.64,29.54,1,0,2,0.00
2013-7-5,85.1,76.0,68.0,69.3,66.2,63.5,88,73,53,29.63,29.54,5,0,7,0.00
2013-7-6,87.7,76.5,70.7,71.4,66.8,59.4,91,74,48,29.60,29.51,3,0,6,0.00
2013-7-7,91.4,79.7,68.4,72.6,68.1,63.1,84,69,47,29.60,29.52,3,0,8,0.00
2013-7-8,93.0,82.2,74.8,74.9,70.8,67.2,79,69,53,29.65,29.55,3,0,6,0.00
2013-7-9,95.5,86.3,78.2,75.6,72.8,70.3,79,65,49,29.60,29.47,5,0,8,0.00
2013-7-10,87.3,81.0,72.9,76.1,72.0,67.4,89,75,61,29.54,29.44,7,0,9,0.07
2013-7-11,78.7,76.0,73.3,67.5,65.8,64.7,75,71,68,29.55,29.52,0,0,1,0.00
2013-7-19,93.8,84.5,81.9,75.2,72.6,71.4,71,68,55,29.46,29.44,1,0,5,0.01
2013-7-20,94.7,82.9,75.2,77.6,72.3,67.8,82,71,52,29.48,29.34,5,0,7,0.00
2013-7-21,81.9,77.4,74.2,73.6,71.2,69.1,87,81,72,29.49,29.39,2,0,3,0.00
2013-7-22,94.6,81.2,71.9,75.2,71.7,68.8,91,74,52,29.41,29.31,4,0,7,0.00
2013-7-23,94.0,83.6,76.4,76.0,71.4,64.8,81,68,48,29.44,29.29,4,0,7,0.00
2013-7-24,82.2,74.6,66.8,66.3,58.8,52.8,79,59,42,29.58,29.45,4,0,8,0.00
2013-7-25,84.1,74.2,64.3,59.5,57.5,54.8,78,57,40,29.67,29.57,1,0,5,0.00
2013-7-26,73.7,71.9,69.6,68.6,63.4,57.2,89,75,58,29.61,29.49,4,0,7,0.03
2013-7-27,78.1,70.6,64.7,66.9,57.4,50.9,89,65,46,29.55,29.49,3,0,8,0.00
2013-7-28,83.1,70.3,57.2,57.0,52.2,49.4,81,55,33,29.60,29.53,5,0,8,0.00
2013-7-29,75.5,70.3,62.0,63.3,59.3,54.8,83,69,56,29.70,29.60,2,0,4,0.00
2013-7-30,73.5,70.3,65.8,68.3,64.8,60.5,89,83,70,29.67,29.53,2,0,6,1.20
2013-7-31,82.8,74.4,70.8,71.1,67.7,64.9,89,80,63,29.59,29.52,1,0,5,0.00
2013-8-1,90.5,75.7,66.8,66.9,62.6,55.2,89,67,33,29.63,29.53,4,0,5,0.00
2013-8-2,82.2,75.4,70.5,71.7,67.1,60.9,93,76,61,29.54,29.45,4,0,7,0.28
2013-8-3,86.4,76.8,71.2,72.0,68.9,63.0,94,78,57,29.65,29.47,3,0,5,0.00
2013-8-4,79.9,74.1,67.5,63.4,60.7,57.2,78,63,51,29.72,29.61,0,0,1,0.00
2013-8-5,73.2,70.9,68.9,67.7,64.0,60.5,90,79,69,29.64,29.43,2,0,5,0.00
2013-8-6,89.2,77.7,70.4,72.2,70.4,67.7,95,80,55,29.47,29.39,3,0,6,0.00
2013-8-7,92.4,80.1,73.4,74.5,70.9,66.4,92,75,46,29.46,29.36,5,0,8,0.00
2013-8-8,79.3,76.8,74.9,74.0,71.8,70.1,91,85,81,29.51,29.42,1,0,3,0.15
2013-8-9,80.4,75.7,70.5,71.0,67.9,64.6,90,77,64,29.61,29.48,1,0,3,0.00
2013-8-10,87.9,78.1,70.5,70.1,65.8,61.4,85,67,42,29.68,29.60,4,0,5,0.00
2013-8-11,90.9,77.0,64.8,63.0,59.3,52.8,81,57,33,29.69,29.58,2,0,4,0.00
2013-8-12,79.1,75.3,72.2,74.9,69.1,60.7,94,82,61,29.62,29.45,2,0,3,0.23
2013-8-13,80.0,73.2,67.4,70.9,63.9,54.9,94,74,59,29.67,29.49,3,0,6,0.00
2013-8-14,75.3,67.0,58.5,54.3,51.9,49.7,77,59,45,29.75,29.66,2,0,6,0.00
2013-8-15,63.9,63.9,63.9,52.7,52.7,52.7,67,67,67,29.71,29.70,0,0,0,0.00
2013-8-16,77.5,71.7,62.9,57.5,56.5,54.7,80,59,48,29.69,29.65,3,0,5,0.00
2013-8-17,85.0,72.3,63.6,61.7,58.8,56.1,79,64,44,29.72,29.64,4,0,7,0.00
2013-8-18,87.0,75.3,68.4,64.1,61.7,59.4,74,64,44,29.72,29.61,0,0,1,0.00
2013-8-19,88.8,76.5,66.6,67.1,64.1,62.5,89,67,44,29.68,29.57,4,0,5,0.00
2013-8-20,89.2,78.6,69.2,68.6,66.4,63.6,88,68,47,29.66,29.57,1,0,5,0.00
2013-8-21,91.7,80.5,71.5,69.7,67.5,64.7,87,66,43,29.67,29.56,2,0,6,0.00
2013-8-22,91.7,83.0,73.6,73.7,70.4,67.7,84,67,52,29.65,29.55,4,0,6,0.00
2013-8-23,92.7,82.1,74.6,73.3,70.7,67.4,83,70,46,29.65,29.58,4,0,7,0.00
2013-8-24,92.9,81.0,71.5,70.3,68.1,66.0,86,66,45,29.75,29.64,4,0,7,0.00
2013-8-25,94.0,81.6,70.5,72.9,66.6,59.6,82,62,36,29.81,29.70,6,0,8,0.00
2013-8-26,95.6,83.9,75.5,74.9,73.0,69.2,91,71,47,29.76,29.60,4,0,6,0.00
2013-8-27,96.5,84.7,75.6,74.3,70.6,66.3,86,65,39,29.63,29.52,4,0,8,0.00
2013-8-28,98.9,85.1,74.3,70.4,68.7,66.8,82,60,37,29.59,29.51,5,0,6,0.00
2013-8-29,99.0,87.1,77.0,76.3,71.7,68.3,80,62,41,29.59,29.49,4,0,6,0.00
2013-8-30,100.5,87.5,78.7,76.0,73.3,69.5,81,65,37,29.51,29.37,3,0,10,0.00
2013-8-31,102.1,88.3,77.9,77.0,73.0,68.9,94,64,35,29.40,29.25,7,0,16,0.26
2013-9-1,90.8,82.9,77.4,77.7,74.6,67.0,94,77,56,29.39,29.30,5,0,7,0.00
2013-9-2,87.4,78.2,71.2,72.4,63.9,60.9,78,62,47,29.51,29.38,4,0,6,0.00
2013-9-3,86.1,74.1,64.9,62.8,59.6,56.0,78,62,41,29.62,29.50,0,0,2,0.00
2013-9-4,90.0,75.1,63.9,62.2,59.7,56.7,83,61,36,29.71,29.61,0,0,1,0.00
2013-9-5,89.9,76.5,65.3,65.5,62.2,59.5,87,63,43,29.74,29.66,0,0,0,0.00
2013-9-6,90.7,78.4,69.3,67.7,64.6,61.2,84,64,39,29.72,29.57,3,0,7,0.00
2013-9-7,95.8,81.3,68.5,71.1,65.2,61.0,87,61,33,29.60,29.45,4,0,7,0.00
2013-9-8,82.8,77.6,72.6,74.9,70.4,66.1,95,79,64,29.57,29.45,4,0,6,0.40
2013-9-9,98.4,85.2,74.9,74.1,70.7,67.0,90,66,38,29.52,29.43,5,0,7,0.00
2013-9-10,100.4,86.9,76.6,71.8,68.0,60.7,83,57,30,29.63,29.52,3,0,6,0.00
2013-9-11,98.2,85.7,73.9,69.5,67.7,63.6,83,57,34,29.68,29.56,4,0,7,0.00
2013-9-12,88.6,79.7,71.1,70.2,64.0,51.3,81,60,42,29.63,29.52,2,0,6,0.00
2013-9-13,78.1,68.6,61.6,56.2,50.5,42.7,69,53,37,29.68,29.60,5,0,6,0.00
2013-9-14,79.4,65.2,54.8,47.2,44.2,37.1,70,49,27,29.72,29.58,3,0,7,0.00
2013-9-15,83.2,69.5,57.8,63.9,53.9,46.3,81,59,43,29.65,29.53,2,0,6,0.04
2013-9-16,75.9,66.3,61.1,63.3,56.9,53.4,82,72,53,29.82,29.65,4,0,9,0.01
2013-9-17,72.3,65.5,60.4,64.1,58.3,53.9,81,78,70,29.78,29.61,2,0,4,0.02
2013-9-18,86.4,72.2,66.3,72.7,66.9,60.7,94,84,55,29.62,29.49,4,0,8,0.63
2013-9-19,91.3,79.2,72.1,73.1,69.9,67.2,86,74,52,29.54,29.40,3,0,6,0.00
2013-9-20,79.0,69.4,62.6,71.2,64.8,53.7,92,86,71,29.48,29.41,4,0,5,0.44
2013-9-21,74.1,62.8,55.4,54.2,51.3,48.8,86,68,46,29.51,29.44,3,0,5,0.00
2013-9-22,78.2,63.5,53.0,52.5,50.3,47.4,85,64,38,29.57,29.47,0,0,0,0.00
2013-9-23,80.2,66.0,55.6,54.8,51.5,48.8,79,61,40,29.58,29.46,2,0,7,0.00
2013-9-24,82.2,69.1,58.3,65.2,58.6,51.2,81,70,52,29.50,29.33,3,0,6,0.00
2013-9-25,84.2,72.7,66.0,64.6,62.6,60.9,86,72,50,29.41,29.33,0,0,3,0.00
2013-9-26,86.9,73.3,63.6,65.5,61.2,58.2,88,68,43,29.56,29.40,2,0,5,0.00
2013-9-27,86.9,73.5,63.7,64.2,58.6,54.5,83,62,38,29.65,29.54,6,0,8,0.00
2013-9-28,83.4,73.9,65.4,67.8,61.4,53.8,91,66,53,29.60,29.48,4,0,10,0.09
2013-9-29,78.2,66.2,60.1,67.9,55.2,50.5,96,70,41,29.62,29.51,4,0,5,0.03
2013-9-30,79.7,65.7,55.3,65.0,59.0,51.4,96,80,55,29.53,29.42,2,0,6,0.00
2013-10-1,82.2,71.1,64.1,70.6,65.9,61.5,94,84,67,29.57,29.48,2,0,4,0.00
2013-10-2,83.4,73.4,69.1,70.6,67.9,66.0,93,83,61,29.60,29.50,2,0,7,0.00
2013-10-3,86.1,76.2,69.6,70.7,67.9,64.9,90,76,58,29.52,29.41,5,0,10,0.00
2013-10-4,86.7,77.5,69.9,71.3,68.6,66.8,90,75,56,29.52,29.43,7,0,9,0.00
2013-10-7,73.1,61.4,52.4,49.7,47.2,44.6,78,61,41,29.68,29.58,4,0,7,0.00
2013-10-8,77.7,62.0,50.0,52.4,49.2,45.7,88,65,39,29.75,29.66,3,0,7,0.00
2013-10-9,79.4,63.4,50.8,56.9,51.0,45.3,86,65,42,29.74,29.62,4,0,5,0.00
2013-10-10,82.1,67.3,56.6,63.1,57.8,53.8,94,73,47,29.70,29.55,3,0,5,0.00
2013-10-11,82.1,68.3,58.7,63.6,58.3,54.4,89,72,43,29.59,29.44,6,0,10,0.00
2013-10-12,79.8,67.8,62.3,63.7,57.9,44.9,92,72,50,29.74,29.47,2,0,4,0.07
2013-10-13,75.3,63.0,52.9,47.4,43.2,36.8,71,50,32,29.92,29.73,3,0,3,0.00
2013-10-14,68.0,60.0,52.7,56.1,45.3,35.6,80,59,45,29.88,29.59,5,0,5,0.00
2013-10-15,67.6,62.9,57.1,66.2,60.4,51.0,100,92,80,29.60,29.43,6,0,6,0.31
2013-10-16,62.7,53.8,47.4,51.3,43.4,40.7,81,68,53,29.60,29.50,5,0,7,0.00
2013-10-17,66.8,54.4,48.4,46.2,43.8,39.8,87,69,40,29.56,29.46,5,0,7,0.02
2013-10-18,64.2,52.8,46.1,45.5,41.6,36.5,84,67,44,29.61,29.50,4,0,6,0.03
2013-10-19,59.8,48.1,40.7,42.0,37.4,33.4,88,69,40,29.58,29.49,7,0,10,0.23
2013-10-20,71.2,55.8,39.0,45.7,41.8,31.6,80,61,38,29.52,29.40,6,0,9,0.00
2013-10-21,55.3,50.8,42.5,44.0,39.6,33.1,80,66,47,29.61,29.46,5,0,7,0.00
2013-10-22,60.0,46.8,39.5,46.2,38.1,33.3,86,72,52,29.61,29.34,11,0,11,0.01
2013-10-23,51.5,43.3,38.4,35.5,31.4,17.8,78,64,42,29.69,29.53,5,0,8,0.00
2013-10-24,49.6,42.1,34.6,34.3,28.1,23.1,80,59,41,29.96,29.67,8,0,8,0.00
2013-10-25,56.4,42.0,30.6,30.9,27.2,24.1,78,58,34,30.07,29.76,5,0,8,0.00
2013-10-26,67.2,51.7,41.5,44.2,33.7,26.6,65,51,38,29.76,29.55,7,1,10,0.00
2013-10-27,62.9,47.4,35.9,33.7,30.7,27.3,76,54,31,29.69,29.56,4,0,4,0.00
2013-10-28,70.3,52.5,38.3,48.6,40.2,33.2,85,65,40,29.79,29.60,1,0,1,0.00
2013-10-29,57.5,53.8,50.0,55.5,46.2,36.9,93,77,56,29.81,29.60,3,0,4,0.18
2013-10-30,71.7,64.1,57.2,66.2,60.3,55.1,96,88,72,29.61,29.38,6,0,7,0.04
2013-10-31,65.1,60.6,49.1,62.6,57.3,44.9,93,89,84,29.38,28.93,7,0,9,0.90
2013-11-1,62.4,53.4,48.1,46.0,43.7,40.5,89,71,48,29.41,29.18,8,0,11,0.01
2013-11-2,55.2,48.6,42.0,41.0,38.8,35.3,81,70,50,29.74,29.39,6,0,8,0.00
2013-11-3,59.4,47.3,36.4,38.8,35.1,32.5,88,65,39,29.85,29.70,6,0,8,0.00
2013-11-4,59.9,52.0,46.4,45.9,40.8,34.8,71,65,57,29.78,29.65,5,0,9,0.00
2013-11-5,59.9,55.2,51.3,52.3,49.1,45.1,92,80,70,29.81,29.59,4,0,8,0.17
2013-11-10,42.8,42.8,42.8,31.9,31.9,31.9,65,65,65,29.84,29.84,0,0,0,0.00
2013-11-11,66.6,50.9,34.8,47.8,39.4,29.6,84,66,46,30.03,29.66,4,0,8,0.06
2013-11-12,38.9,31.5,25.6,31.1,18.5,15.8,100,59,42,30.32,30.04,4,0,6,0.00
2013-11-13,47.5,34.0,23.6,20.6,17.6,15.3,74,53,32,30.25,29.86,4,0,8,0.00
2013-11-14,58.6,44.8,32.8,27.0,22.1,18.0,58,42,24,29.86,29.60,6,1,10,0.00
2013-11-15,57.9,50.4,47.0,42.6,32.9,26.0,80,52,38,29.62,29.49,5,0,7,0.00
2013-11-16,64.7,57.5,48.1,59.4,51.7,42.2,90,81,74,29.49,29.18,7,1,11,0.06
2013-11-17,78.6,65.8,51.5,64.3,49.2,26.7,90,60,22,29.52,28.92,13,2,21,0.05
2013-11-18,59.5,49.0,40.7,39.0,32.7,26.2,73,55,31,29.85,29.53,7,0,10,0.01
2013-11-19,48.8,41.4,36.5,29.2,26.9,24.6,71,57,40,29.91,29.76,3,0,6,0.00
2013-11-20,49.3,40.8,34.9,39.9,32.3,26.3,81,72,63,29.77,29.59,4,0,8,0.00
2013-11-21,50.7,49.1,47.7,48.8,45.2,39.8,93,87,70,29.74,29.63,1,0,6,0.00
2013-11-22,50.7,40.4,35.5,48.5,35.6,28.7,92,83,75,30.07,29.73,2,0,6,0.01
2013-11-23,37.1,30.0,20.7,28.6,18.0,8.6,80,61,38,30.28,30.06,3,0,8,0.00
2013-11-24,20.6,15.2,9.3,8.8,2.2,-0.4,65,51,33,30.31,30.00,4,0,6,0.02
2013-11-25,36.2,22.1,13.9,22.0,7.5,0.0,59,52,41,30.00,29.72,3,1,8,0.00
2013-11-26,44.8,34.6,24.7,28.5,20.7,8.3,66,57,47,29.81,29.63,3,0,8,0.15
2013-11-27,33.8,26.1,17.2,10.4,4.7,0.0,100,48,37,29.93,29.80,6,1,10,0.02
2013-11-28,50.2,34.5,22.1,24.9,16.1,0.0,58,50,36,30.05,29.82,10,1,10,0.09
2013-11-29,47.5,36.5,27.0,31.0,22.0,16.5,99,56,43,30.15,29.93,4,0,8,0.02
2013-11-30,60.4,44.2,30.6,37.6,31.1,23.7,78,61,42,29.93,29.64,4,0,7,0.00
2013-12-1,62.5,48.1,36.6,40.9,35.8,31.8,86,64,44,29.69,29.45,0,0,1,0.00
2013-12-2,59.5,48.2,40.8,45.5,39.0,32.6,82,70,58,29.45,29.23,3,0,5,0.00
2013-12-3,57.7,51.5,46.4,50.0,46.3,41.5,88,83,72,29.26,29.18,4,0,8,0.00
2013-12-4,66.7,55.2,42.8,54.2,48.1,33.3,90,78,62,29.41,29.07,8,0,11,0.00
2013-12-5,42.1,29.7,23.1,33.0,20.2,14.0,79,68,59,29.85,29.42,4,0,9,0.00
2013-12-6,24.1,21.4,17.1,17.4,11.0,3.9,77,64,53,30.15,29.83,2,0,5,0.00
2013-12-7,27.1,19.7,12.4,9.8,6.5,2.8,66,56,46,30.27,30.01,7,0,7,0.02
2013-12-8,27.8,24.0,20.9,22.9,18.1,8.8,84,78,56,30.01,29.57,5,0,8,0.00
2013-12-9,28.5,25.2,22.0,23.4,15.0,10.4,81,65,57,29.88,29.65,4,1,10,0.01
2013-12-10,40.2,26.5,16.9,17.3,11.5,0.0,68,55,37,29.88,29.80,7,1,11,0.03
2013-12-11,37.1,26.4,15.3,23.1,12.4,-1.5,74,56,41,30.22,29.86,4,0,9,0.02
2013-12-12,36.4,23.6,12.2,16.7,7.9,-2.9,57,51,41,30.22,29.84,7,0,7,0.00
2013-12-13,33.7,30.5,24.6,30.2,22.2,14.7,88,71,56,29.83,29.51,6,0,8,0.23
2013-12-14,34.3,31.9,27.7,31.8,28.5,22.6,91,87,81,29.70,29.39,5,0,9,0.22
2013-12-15,31.7,28.9,23.9,22.7,9.8,0.0,82,76,66,29.76,29.59,5,1,10,0.13
2013-12-16,31.7,31.7,31.7,0.0,0.0,0.0,87,76,61,29.69,29.54,2,0,4,0.13
2013-12-17,31.7,31.7,31.7,0.0,0.0,0.0,81,68,53,29.84,29.67,4,0,11,0.01
2013-12-18,31.7,31.7,31.7,0.0,0.0,0.0,73,58,41,29.83,29.50,5,1,12,0.00
2013-12-19,59.5,46.4,31.7,48.5,29.7,0.0,79,73,63,29.50,29.34,7,1,11,0.00
2013-12-20,68.9,53.7,38.7,57.6,47.0,34.3,85,78,64,29.42,29.24,7,0,10,0.13
2013-12-21,38.6,34.7,33.2,34.2,31.9,30.9,92,89,83,29.41,29.12,2,0,4,0.98
2013-12-22,35.9,32.9,28.5,32.1,28.7,21.9,92,84,76,29.82,29.19,6,1,14,0.02
2013-12-23,30.8,23.7,13.8,21.8,14.6,3.7,77,68,57,30.15,29.83,4,1,9,0.00
2013-12-24,24.1,16.6,7.4,4.3,-0.3,-3.8,64,53,38,30.19,29.92,5,1,11,0.00
2013-12-25,34.9,25.2,22.4,27.8,6.3,0.0,75,68,61,29.94,29.79,5,1,11,0.00
2013-12-26,49.7,37.4,27.2,31.4,25.6,23.0,86,65,36,29.94,29.80,2,0,5,0.00
2013-12-27,55.2,41.8,30.2,33.9,27.8,21.8,73,58,41,29.94,29.79,0,0,0,0.00
2013-12-28,57.6,44.3,33.6,34.1,29.0,24.8,72,56,36,29.81,29.47,0,0,0,0.00
2013-12-29,43.0,31.2,18.6,30.0,20.8,5.5,75,65,56,29.83,29.42,5,0,10,0.00
2013-12-30,28.7,20.9,12.4,10.6,3.2,-2.2,59,46,33,29.92,29.77,4,0,4,0.00
2013-12-31,43.8,34.3,22.5,24.7,18.2,5.3,63,52,42,29.97,29.73,5,1,8,0.00
2014-1-1,48.1,37.6,26.1,29.5,25.8,20.8,81,63,46,29.73,29.57,4,0,6,0.00
2014-1-2,25.9,19.8,11.6,20.6,10.2,0.0,80,66,54,30.05,29.61,6,1,8,0.07